Time;durP1;ratioP1;P1;durP2;ratioP2;P2;SDS_P1;SDS_P2;PMS_P1;PMS_P2;Temp;Humidity;BMP_temperature;BMP_pressure;BME280_temperature;BME280_humidity;BME280_pressure;Samples;Min_cycle;Max_cycle;Signal;HPM_P1;HPM_P2
2021/12/17 00:05:06;;;;;;;28.20;14.82;;;;;;;2.21;98.34;101027.59;5025162;28;20056;-65
2021/12/17 00:07:35;;;;;;;28.15;14.73;;;;;;;2.27;98.38;101022.72;5024956;28;20033;-65
2021/12/17 00:10:10;;;;;;;35.88;16.45;;;;;;;2.24;98.53;101027.75;5024789;28;20026;-65
2021/12/17 00:12:35;;;;;;;28.35;15.80;;;;;;;2.27;98.28;101022.72;5041367;28;20359;-65
2021/12/17 00:15:01;;;;;;;32.13;15.80;;;;;;;2.32;98.24;101018.66;5044437;28;20021;-65
2021/12/17 00:17:33;;;;;;;29.73;15.18;;;;;;;2.44;98.40;101027.09;5037916;28;20018;-65
2021/12/17 00:49:46;;;;;;;31.23;17.15;;;;;;;2.83;98.83;101008.25;5024190;28;20289;-64
2021/12/17 00:52:11;;;;;;;29.75;16.58;;;;;;;2.96;99.44;101012.31;5024152;28;20021;-65
2021/12/17 00:54:40;;;;;;;28.65;16.63;;;;;;;3.04;98.93;101018.81;5024387;28;20033;-65
2021/12/17 00:57:13;;;;;;;31.02;16.95;;;;;;;3.11;99.27;101011.38;5024149;28;20029;-65
2021/12/17 00:59:41;;;;;;;32.35;18.50;;;;;;;3.09;99.52;101006.88;5023965;28;20033;-65
2021/12/17 01:02:14;;;;;;;29.63;16.52;;;;;;;3.22;99.64;100999.75;5024070;28;20018;-65
2021/12/17 01:04:44;;;;;;;35.72;17.40;;;;;;;3.21;99.89;101003.19;5024069;28;20225;-65
2021/12/17 01:07:11;;;;;;;28.00;16.05;;;;;;;3.25;99.24;101001.59;5024316;28;20361;-65
2021/12/17 01:09:37;;;;;;;29.50;16.90;;;;;;;3.20;99.18;100990.97;5023953;28;20021;-65
2021/12/17 01:12:05;;;;;;;31.58;16.33;;;;;;;3.34;99.14;101000.31;5023951;28;20132;-65
2021/12/17 01:14:32;;;;;;;31.00;18.25;;;;;;;3.31;99.61;100989.78;5032438;28;20036;-65
2021/12/17 01:16:58;;;;;;;37.08;17.67;;;;;;;3.45;100.00;101003.44;5043709;28;20029;-65
2021/12/17 01:35:34;;;;;;;36.03;15.82;;;;;;;5.15;100.00;101048.31;5043556;28;20025;-65
2021/12/17 01:43:37;;;;;;;31.50;14.93;;;;;;;5.86;100.00;101018.03;5047317;28;20039;-65
2021/12/17 01:46:05;;;;;;;27.67;16.65;;;;;;;5.74;100.00;100978.38;5047572;28;20371;-65
2021/12/17 01:48:39;;;;;;;29.95;15.68;;;;;;;5.44;99.98;100934.56;5047172;28;20022;-65
2021/12/17 01:56:53;;;;;;;32.85;15.85;;;;;;;5.71;100.00;100964.31;5047078;28;20036;-65
2021/12/17 01:59:23;;;;;;;29.13;15.35;;;;;;;5.79;100.00;100970.72;5045169;28;20025;-65
2021/12/17 02:01:51;;;;;;;25.63;12.52;;;;;;;6.20;100.00;100973.09;5027481;28;20045;-65
2021/12/17 02:04:17;;;;;;;32.28;14.82;;;;;;;6.17;100.00;101004.41;5027016;28;20033;-65
2021/12/17 02:06:42;;;;;;;28.55;13.88;;;;;;;6.28;100.00;100974.25;5027066;28;20026;-65
2021/12/17 02:21:03;;;;;;;24.80;12.23;;;;;;;6.59;100.00;101018.97;5030449;28;20028;-65
2021/12/17 02:29:07;;;;;;;27.27;10.77;;;;;;;7.01;99.80;100988.06;5046480;28;20059;-65
2021/12/17 02:31:33;;;;;;;18.13;9.27;;;;;;;7.03;99.25;100971.59;5046403;28;20032;-65
2021/12/17 02:34:06;;;;;;;19.33;10.65;;;;;;;7.03;99.02;100975.91;5046401;28;20060;-65
2021/12/17 02:36:34;;;;;;;20.48;10.82;;;;;;;7.01;99.44;100983.72;5029318;28;20025;-65
2021/12/17 02:40:12;;;;;;;16.17;8.23;;;;;;;7.06;99.36;100982.16;5026469;28;20132;-65
2021/12/17 02:47:15;;;;;;;15.48;7.65;;;;;;;7.09;99.19;100978.75;5026349;28;20396;-65
2021/12/17 02:49:43;;;;;;;14.77;7.80;;;;;;;7.07;99.16;100973.44;5026282;28;20022;-65
2021/12/17 02:52:09;;;;;;;12.27;6.70;;;;;;;7.12;99.33;101034.69;5026211;28;20030;-65
2021/12/17 02:54:36;;;;;;;16.13;7.43;;;;;;;7.21;99.35;100934.59;5025035;28;20029;-65
2021/12/17 02:57:03;;;;;;;13.27;6.88;;;;;;;7.22;98.96;101167.78;5026103;28;20068;-65
2021/12/17 02:59:29;;;;;;;10.48;5.93;;;;;;;7.23;98.58;101043.81;5025976;28;20025;-65
2021/12/17 03:01:56;;;;;;;13.57;7.00;;;;;;;7.22;98.69;101021.09;5026044;28;20030;-65
2021/12/17 03:04:23;;;;;;;11.57;5.93;;;;;;;7.25;99.12;101015.03;5025908;28;20040;-65
2021/12/17 03:06:49;;;;;;;12.02;6.53;;;;;;;7.22;98.62;101008.00;5025967;28;20030;-65
2021/12/17 03:09:16;;;;;;;13.77;6.72;;;;;;;7.26;98.68;101004.63;5025933;28;20348;-65
2021/12/17 03:11:42;;;;;;;12.82;6.55;;;;;;;7.20;98.55;100995.66;5042506;28;20017;-65
2021/12/17 03:14:08;;;;;;;12.63;7.22;;;;;;;7.32;98.46;101007.44;5045925;28;20076;-65
2021/12/17 03:16:53;;;;;;;11.20;6.15;;;;;;;7.25;98.56;100995.00;5045580;28;20026;-65
2021/12/17 03:24:47;;;;;;;13.38;6.95;;;;;;;7.20;99.09;101004.41;5025678;28;20405;-65
2021/12/17 03:27:13;;;;;;;13.40;7.22;;;;;;;7.24;99.16;101003.66;5025567;28;20025;-65
2021/12/17 03:29:38;;;;;;;15.55;7.70;;;;;;;7.29;99.05;100996.84;5025533;28;20033;-65
2021/12/17 03:32:04;;;;;;;12.43;6.60;;;;;;;7.27;98.18;100995.91;5026290;28;20386;-65
2021/12/17 03:34:30;;;;;;;12.35;6.95;;;;;;;7.32;98.49;100989.09;5027910;28;20221;-65
2021/12/17 03:36:57;;;;;;;14.18;6.63;;;;;;;7.33;98.13;100995.19;5046240;28;20048;-65
2021/12/17 03:39:29;;;;;;;15.18;7.30;;;;;;;7.28;98.34;100979.34;5046078;28;20029;-65
2021/12/17 03:41:55;;;;;;;13.75;6.05;;;;;;;7.21;98.57;100982.63;5046362;28;20041;-65
2021/12/17 03:44:21;;;;;;;10.90;6.20;;;;;;;7.31;97.99;100979.44;5046203;28;20026;-65
2021/12/17 03:46:49;;;;;;;11.95;6.22;;;;;;;7.27;98.62;100967.09;5045164;28;20071;-65
2021/12/17 03:49:16;;;;;;;10.00;6.68;;;;;;;7.33;98.64;100982.09;5044948;28;20028;-65
2021/12/17 03:51:50;;;;;;;11.68;6.72;;;;;;;7.36;98.04;100977.84;5042840;28;20108;-65
2021/12/17 03:54:16;;;;;;;14.60;8.00;;;;;;;7.30;97.92;100980.28;5025124;28;20037;-65
2021/12/17 03:56:42;;;;;;;13.70;7.32;;;;;;;7.33;98.30;100977.75;5025287;28;20085;-65
2021/12/17 03:59:10;;;;;;;12.15;6.72;;;;;;;7.30;98.27;100980.28;5025265;28;20252;-65
2021/12/17 04:01:37;;;;;;;11.75;7.00;;;;;;;7.34;98.32;100984.78;5040601;28;20069;-65
2021/12/17 04:04:03;;;;;;;16.65;8.43;;;;;;;7.32;98.06;100986.47;5044565;28;20021;-65
2021/12/17 04:06:28;;;;;;;14.00;7.72;;;;;;;7.31;98.31;100984.66;5044379;28;20021;-65
2021/12/17 04:08:55;;;;;;;12.85;8.20;;;;;;;7.28;98.71;100979.34;5044868;28;20084;-65
2021/12/17 04:11:20;;;;;;;12.77;7.82;;;;;;;7.24;98.53;100979.22;5044784;28;20017;-65
2021/12/17 04:13:53;;;;;;;17.30;9.40;;;;;;;7.21;98.97;100984.38;5044450;28;20340;-65
2021/12/17 04:16:23;;;;;;;13.00;7.05;;;;;;;7.36;98.67;100992.69;5044467;28;20025;-65
2021/12/17 04:18:49;;;;;;;13.27;7.28;;;;;;;7.41;97.94;100978.00;5044262;28;20055;-65
2021/12/17 04:21:15;;;;;;;10.93;7.13;;;;;;;7.34;98.20;100990.00;5044343;28;20045;-65
2021/12/17 04:23:42;;;;;;;12.25;7.15;;;;;;;7.31;98.19;100989.91;5044395;28;20021;-65
2021/12/17 04:26:07;;;;;;;16.92;8.50;;;;;;;7.23;98.54;100986.19;5044017;28;20051;-65
2021/12/17 04:28:36;;;;;;;17.70;9.68;;;;;;;7.22;98.67;100989.66;5044269;28;20247;-65
2021/12/17 04:31:01;;;;;;;14.43;8.75;;;;;;;7.21;98.84;100993.09;5044213;28;20040;-65
2021/12/17 04:33:27;;;;;;;14.50;8.98;;;;;;;7.32;98.08;100991.72;5044171;28;20021;-65
2021/12/17 04:35:52;;;;;;;16.40;9.07;;;;;;;7.21;98.07;100981.75;5044191;28;20029;-65
2021/12/17 04:38:20;;;;;;;16.30;9.55;;;;;;;7.29;98.20;100978.53;5044149;28;20056;-65
2021/12/17 04:40:47;;;;;;;15.23;9.25;;;;;;;7.19;98.48;100971.22;5043920;28;20096;-65
2021/12/17 04:46:02;;;;;;;21.13;10.77;;;;;;;7.22;98.45;100984.41;5044361;28;20093;-65
2021/12/17 04:59:23;;;;;;;14.20;8.35;;;;;;;7.15;97.73;100979.81;5024181;28;20059;-65
2021/12/17 05:01:48;;;;;;;18.73;10.23;;;;;;;7.11;97.37;100970.06;5025187;28;20245;-65
2021/12/17 05:04:14;;;;;;;20.58;9.77;;;;;;;7.17;97.30;100975.50;5024044;28;20053;-65
2021/12/17 05:06:39;;;;;;;18.15;9.07;;;;;;;7.15;96.85;100969.31;5022714;28;20022;-65
2021/12/17 05:09:19;;;;;;;13.20;7.88;;;;;;;7.29;95.89;100968.03;5027217;28;20025;-65
2021/12/17 05:19:51;;;;;;;13.45;8.43;;;;;;;7.29;94.80;100975.91;5046687;28;20103;-65
2021/12/17 05:22:18;;;;;;;12.27;7.70;;;;;;;7.23;95.33;100983.56;5047097;28;20025;-65
2021/12/17 05:24:43;;;;;;;11.38;7.30;;;;;;;7.24;95.39;100974.84;5046609;28;20216;-65
2021/12/17 05:27:09;;;;;;;19.10;9.88;;;;;;;7.20;95.09;100975.59;5034861;28;20029;-65
2021/12/17 05:29:35;;;;;;;13.13;8.88;;;;;;;7.15;94.59;100966.69;5026952;28;20053;-65
2021/12/17 05:32:00;;;;;;;12.90;9.15;;;;;;;7.28;94.45;100974.09;5032652;28;20021;-65
2021/12/17 05:34:26;;;;;;;10.55;6.75;;;;;;;7.23;93.46;100960.00;5030647;28;20314;-65
2021/12/17 05:36:51;;;;;;;12.27;7.80;;;;;;;7.28;93.18;100963.63;5034883;28;20022;-65
2021/12/17 05:39:17;;;;;;;10.20;7.20;;;;;;;7.38;92.49;100955.22;5039963;28;20352;-65
2021/12/17 05:41:42;;;;;;;12.13;8.20;;;;;;;7.37;92.47;100958.66;5047388;28;20037;-65
2021/12/17 05:44:07;;;;;;;14.63;8.07;;;;;;;7.33;92.84;100959.41;5047436;28;20025;-65
2021/12/17 05:46:49;;;;;;;11.50;7.60;;;;;;;7.28;92.12;100950.53;5047345;28;20021;-65
2021/12/17 05:49:22;;;;;;;12.80;7.80;;;;;;;7.12;93.67;100945.66;5047594;28;20021;-65
2021/12/17 05:51:49;;;;;;;10.10;7.18;;;;;;;7.17;93.00;100941.47;5047208;28;20025;-65
2021/12/17 05:54:15;;;;;;;11.40;6.65;;;;;;;7.21;92.45;100919.75;5047191;28;20029;-65
2021/12/17 05:56:40;;;;;;;9.88;6.72;;;;;;;7.16;92.70;100942.31;5047093;28;20092;-65
2021/12/17 05:59:08;;;;;;;12.13;7.38;;;;;;;7.12;93.09;100950.03;5047143;28;20221;-65
2021/12/17 06:01:34;;;;;;;13.32;7.00;;;;;;;7.13;93.73;100952.69;5047260;28;20356;-65
2021/12/17 06:03:59;;;;;;;13.23;6.95;;;;;;;7.18;93.58;100956.31;5046915;28;20131;-65
2021/12/17 06:06:25;;;;;;;12.23;7.15;;;;;;;7.15;93.13;100951.00;5046942;28;20033;-65
2021/12/17 06:08:51;;;;;;;9.68;6.75;;;;;;;7.24;92.81;100951.28;5046926;28;20032;-65
2021/12/17 06:11:16;;;;;;;10.48;6.47;;;;;;;7.25;92.43;100958.31;5046836;28;20041;-65
2021/12/17 06:13:42;;;;;;;12.55;7.60;;;;;;;7.34;92.09;100948.09;5046825;28;20025;-65
2021/12/17 06:16:07;;;;;;;12.55;7.43;;;;;;;7.19;92.09;100952.88;5046865;28;20025;-65
2021/12/17 06:18:32;;;;;;;10.43;6.97;;;;;;;7.03;92.87;100948.03;5045422;28;20037;-65
2021/12/17 06:20:58;;;;;;;9.15;5.50;;;;;;;7.01;92.26;100952.31;5046028;28;20384;-65
2021/12/17 06:23:23;;;;;;;11.18;6.07;;;;;;;7.04;92.05;100947.16;5045751;28;20048;-65
2021/12/17 06:25:48;;;;;;;14.25;6.80;;;;;;;6.97;92.43;100952.16;5045694;28;20029;-65
2021/12/17 06:28:16;;;;;;;12.18;7.45;;;;;;;7.02;92.07;100945.34;5045449;28;20217;-65
2021/12/17 06:30:42;;;;;;;14.13;6.93;;;;;;;6.90;92.21;100947.56;5045814;28;20343;-65
2021/12/17 06:33:08;;;;;;;10.85;6.50;;;;;;;6.85;92.25;100954.38;5045179;28;20021;-65
2021/12/17 06:35:33;;;;;;;9.55;6.03;;;;;;;6.86;91.93;100946.56;5045822;28;20043;-65
2021/12/17 06:37:59;;;;;;;10.13;6.25;;;;;;;6.87;91.89;100947.47;5045447;28;20022;-65
2021/12/17 06:40:25;;;;;;;10.13;6.40;;;;;;;6.80;92.55;100941.13;5045593;28;20026;-65
2021/12/17 06:42:50;;;;;;;10.52;7.22;;;;;;;6.78;92.56;100948.06;5045373;28;20244;-65
2021/12/17 06:45:30;;;;;;;13.25;7.78;;;;;;;6.66;93.14;100947.66;5045177;28;20375;-65
2021/12/17 06:47:58;;;;;;;11.18;7.30;;;;;;;6.57;93.36;100952.59;5045543;28;20025;-65
2021/12/17 07:01:04;;;;;;;16.98;7.40;;;;;;;6.38;93.89;100965.88;5044951;28;20064;-65
2021/12/17 07:06:31;;;;;;;10.77;6.28;;;;;;;6.31;94.43;100979.59;5044977;28;20024;-65
2021/12/17 07:11:54;;;;;;;10.43;5.63;;;;;;;6.32;94.50;100981.38;5044763;28;19951;-65
2021/12/17 07:22:27;;;;;;;8.95;5.85;;;;;;;6.21;94.38;100980.13;5044644;28;20024;-65
2021/12/17 07:33:35;;;;;;;8.63;4.93;;;;;;;6.13;94.93;100990.31;5044817;28;20059;-65
2021/12/17 07:35:48;;;;;;;8.40;5.13;;;;;;;6.04;94.92;100986.44;5043948;28;20215;-65
2021/12/17 07:41:00;;;;;;;8.25;5.35;;;;;;;6.00;95.08;100993.31;5043625;28;20229;-65
2021/12/17 07:43:29;;;;;;;10.15;5.43;;;;;;;6.03;95.08;100992.53;5044203;28;20033;-65
2021/12/17 07:45:56;;;;;;;7.78;5.38;;;;;;;6.03;95.14;100989.91;5044126;28;20021;-65
2021/12/17 07:48:22;;;;;;;11.73;5.00;;;;;;;6.05;95.16;101001.31;5044109;28;20313;-65
2021/12/17 07:50:47;;;;;;;9.25;5.57;;;;;;;6.08;95.05;101001.44;5043747;28;20021;-65
2021/12/17 07:53:13;;;;;;;10.35;5.80;;;;;;;6.10;94.57;101004.97;5044043;28;20064;-65
2021/12/17 07:55:39;;;;;;;10.82;5.65;;;;;;;6.10;94.70;101005.88;5044247;28;20040;-65
2021/12/17 07:58:04;;;;;;;9.23;5.40;;;;;;;6.12;95.14;101008.56;5043926;28;20028;-65
2021/12/17 08:00:30;;;;;;;11.43;6.03;;;;;;;6.20;94.46;101013.22;5043864;28;20101;-65
2021/12/17 08:02:56;;;;;;;9.13;4.65;;;;;;;6.26;93.88;101002.06;5043420;28;20056;-65
2021/12/17 08:05:21;;;;;;;7.82;4.63;;;;;;;6.35;93.88;101002.41;5043739;28;20036;-65
2021/12/17 08:07:46;;;;;;;9.02;5.10;;;;;;;6.35;93.27;101002.41;5046592;28;20186;-65
2021/12/17 08:10:12;;;;;;;11.30;6.18;;;;;;;6.40;92.96;101011.31;5053766;28;20064;-65
2021/12/17 08:12:37;;;;;;;9.05;5.25;;;;;;;6.48;92.69;101018.59;5052182;28;20025;-65
2021/12/17 08:15:05;;;;;;;12.23;6.10;;;;;;;6.49;92.25;101014.25;5053984;28;20020;-65
2021/12/17 08:25:42;;;;;;;9.23;5.05;;;;;;;6.68;91.55;101008.81;5043470;28;20028;-65
2021/12/17 08:28:09;;;;;;;8.13;5.40;;;;;;;6.85;90.63;101012.88;5042748;28;20309;-65
2021/12/17 08:30:39;;;;;;;9.15;5.15;;;;;;;6.73;90.62;100991.50;5042068;28;20301;-65
2021/12/17 08:33:06;;;;;;;7.43;4.65;;;;;;;6.75;90.94;101009.88;5043320;28;20067;-65
2021/12/17 08:35:35;;;;;;;8.85;5.30;;;;;;;6.59;90.65;101004.13;5043253;28;20025;-65
2021/12/17 08:38:04;;;;;;;9.95;5.75;;;;;;;6.58;90.75;101017.16;5043238;28;20029;-65
2021/12/17 08:40:30;;;;;;;10.73;5.95;;;;;;;6.51;91.00;101005.59;5043436;28;20021;-65
2021/12/17 08:42:56;;;;;;;10.05;6.10;;;;;;;6.49;91.04;101001.16;5043049;28;20251;-65
2021/12/17 08:45:22;;;;;;;9.75;5.72;;;;;;;6.56;91.25;101000.53;5043460;28;20248;-65
2021/12/17 08:47:49;;;;;;;9.10;5.03;;;;;;;7.15;89.40;101003.38;5043136;28;20221;-65
2021/12/17 08:50:14;;;;;;;9.50;5.47;;;;;;;7.13;88.90;100996.31;5043120;28;20028;-65
2021/12/17 08:52:41;;;;;;;7.95;4.45;;;;;;;7.89;87.19;101010.91;5042409;28;20025;-65
2021/12/17 08:55:07;;;;;;;7.78;4.00;;;;;;;8.55;83.83;101026.81;5042898;28;20033;-65
2021/12/17 08:57:33;;;;;;;6.70;4.00;;;;;;;9.01;82.00;101022.75;5043299;28;20127;-65
2021/12/17 09:00:04;;;;;;;7.65;3.80;;;;;;;9.13;80.86;101015.16;5042704;28;20033;-65
2021/12/17 09:02:30;;;;;;;9.30;5.43;;;;;;;9.94;78.18;101014.41;5050949;28;20029;-65
2021/12/17 09:04:55;;;;;;;7.60;4.63;;;;;;;10.00;76.36;101014.53;5043407;28;20082;-65
2021/12/17 09:07:20;;;;;;;10.00;4.70;;;;;;;10.13;75.83;101021.84;5042902;28;20353;-65
2021/12/17 09:09:47;;;;;;;8.82;4.50;;;;;;;10.25;75.70;101011.56;5042452;28;20032;-66
2021/12/17 09:12:13;;;;;;;11.30;5.45;;;;;;;10.14;74.27;101013.09;5043085;28;20225;-66
2021/12/17 09:14:38;;;;;;;7.65;4.78;;;;;;;9.65;75.62;101002.38;5042849;28;20080;-65
2021/12/17 09:17:04;;;;;;;9.85;5.45;;;;;;;9.95;75.57;101011.78;5042846;28;20026;-65
2021/12/17 09:19:29;;;;;;;11.70;6.47;;;;;;;10.37;73.89;101023.22;5042644;28;20073;-65
2021/12/17 09:21:55;;;;;;;9.15;5.80;;;;;;;10.78;72.80;101016.97;5042281;28;20025;-65
2021/12/17 09:24:20;;;;;;;10.80;6.25;;;;;;;10.46;72.63;101017.22;5042761;28;20025;-65
2021/12/17 09:26:45;;;;;;;11.90;6.18;;;;;;;10.84;71.97;101024.06;5051952;28;20092;-65
2021/12/17 09:29:11;;;;;;;10.48;5.70;;;;;;;10.14;73.84;101007.81;5045626;28;20100;-65
2021/12/17 09:31:36;;;;;;;10.88;6.22;;;;;;;9.98;74.90;101029.38;5062619;28;20044;-65
2021/12/17 09:34:02;;;;;;;11.18;6.20;;;;;;;10.43;73.07;101027.69;5054799;28;20029;-65
2021/12/17 09:36:28;;;;;;;13.18;5.78;;;;;;;9.86;74.56;101022.13;5042445;28;20084;-65
2021/12/17 09:38:53;;;;;;;9.73;5.60;;;;;;;9.77;74.69;101010.50;5042622;28;20124;-65
2021/12/17 09:41:23;;;;;;;11.80;5.93;;;;;;;8.88;77.91;101004.88;5042510;28;20317;-65
2021/12/17 09:43:49;;;;;;;10.27;5.35;;;;;;;8.63;78.36;101012.16;5050715;28;20064;-65
2021/12/17 09:46:15;;;;;;;12.05;6.30;;;;;;;8.50;79.16;101012.69;5053139;28;20225;-65
2021/12/17 09:48:44;;;;;;;10.95;6.03;;;;;;;8.50;79.05;101017.94;5051060;28;20026;-65
2021/12/17 09:51:09;;;;;;;9.13;5.10;;;;;;;8.39;80.11;101008.88;5051412;28;20063;-65
2021/12/17 09:53:36;;;;;;;12.02;5.95;;;;;;;8.38;80.17;100996.59;5053045;28;20020;-65
2021/12/17 09:56:02;;;;;;;12.15;6.03;;;;;;;8.17;81.15;100995.97;5047612;28;20029;-65
2021/12/17 09:58:29;;;;;;;10.73;5.82;;;;;;;8.09;81.62;100996.63;5042701;28;20026;-65
2021/12/17 10:00:54;;;;;;;12.50;5.80;;;;;;;8.01;81.60;100999.00;5051066;28;20096;-65
2021/12/17 10:03:20;;;;;;;11.65;6.35;;;;;;;7.89;82.23;101001.31;5063753;28;20035;-65
2021/12/17 10:05:45;;;;;;;12.57;6.63;;;;;;;7.95;82.72;101019.84;5062745;28;20028;-65
2021/12/17 10:08:17;;;;;;;10.73;6.15;;;;;;;7.92;83.45;101019.75;5060152;28;20320;-65
2021/12/17 10:10:49;;;;;;;12.60;6.47;;;;;;;7.80;83.46;101034.22;5066265;28;20067;-65
2021/12/17 10:13:29;;;;;;;12.65;6.63;;;;;;;7.95;83.69;101034.69;5065720;28;20028;-65
2021/12/17 10:16:06;;;;;;;10.93;6.00;;;;;;;7.94;82.82;101020.66;5058980;28;20321;-65
2021/12/17 10:18:38;;;;;;;12.77;5.65;;;;;;;7.87;83.05;101021.34;5048344;28;20052;-65
2021/12/17 10:21:05;;;;;;;;;;;;;;;8.08;83.26;101036.81;5046163;28;20029;-65
2021/12/17 10:23:31;;;;;;;12.18;5.35;;;;;;;7.94;82.39;101028.53;5045977;28;19912;-65
2021/12/17 10:25:58;;;;;;;10.05;5.78;;;;;;;7.98;83.72;101030.41;5045600;28;20028;-65
2021/12/17 10:28:24;;;;;;;10.65;5.90;;;;;;;8.01;83.14;101025.25;5045153;28;20021;-65
2021/12/17 10:30:50;;;;;;;13.80;7.00;;;;;;;8.12;83.07;101029.06;5045814;28;20305;-65
2021/12/17 10:33:19;;;;;;;10.43;5.38;;;;;;;8.02;83.12;101021.81;5045806;28;20017;-65
2021/12/17 10:35:48;;;;;;;10.95;5.25;;;;;;;7.99;83.61;101023.44;5045538;28;20026;-65
2021/12/17 10:38:17;;;;;;;10.57;5.45;;;;;;;8.03;83.12;101028.81;5045740;28;20063;-65
2021/12/17 10:43:46;;;;;;;;;;;;;;;8.16;82.94;101028.31;5045865;28;20375;-65
2021/12/17 10:46:54;;;;;;;8.32;4.45;;;;;;;8.38;81.14;101021.94;5045340;28;19905;-67
2021/12/17 10:54:13;;;;;;;13.10;4.93;;;;;;;8.55;81.64;101016.31;5045092;28;20064;-65
2021/12/17 10:56:46;;;;;;;7.88;4.40;;;;;;;8.48;80.76;101018.75;5045415;28;20230;-65
2021/12/17 10:59:22;;;;;;;8.05;4.32;;;;;;;8.35;82.19;101001.78;5045071;28;20037;-65
2021/12/17 11:02:00;;;;;;;9.20;4.65;;;;;;;8.31;83.58;101005.16;5044925;28;20225;-65
2021/12/17 11:04:38;;;;;;;9.77;4.68;;;;;;;8.43;80.96;100995.00;5044869;28;20033;-65
2021/12/17 11:07:11;;;;;;;9.40;5.40;;;;;;;8.49;81.81;100986.41;5044533;28;20292;-65
2021/12/17 11:09:47;;;;;;;8.02;4.75;;;;;;;8.65;81.43;100997.34;5044888;28;20444;-65
2021/12/17 11:12:25;;;;;;;9.48;5.13;;;;;;;8.66;81.04;100987.72;5044789;28;20027;-65
2021/12/17 11:14:51;;;;;;;12.07;5.47;;;;;;;8.72;80.66;100987.88;5043738;28;20029;-65
2021/12/17 11:17:21;;;;;;;8.30;4.88;;;;;;;8.66;80.69;100985.09;5044562;28;20025;-65
2021/12/17 11:19:50;;;;;;;8.75;4.97;;;;;;;8.64;80.13;100984.19;5033743;28;20301;-65
2021/12/17 11:22:17;;;;;;;11.00;5.00;;;;;;;8.57;80.05;100983.13;5030893;28;20036;-65
2021/12/17 11:24:43;;;;;;;10.20;5.43;;;;;;;8.56;80.36;100973.47;5026843;28;20286;-65
2021/12/17 11:27:08;;;;;;;10.27;4.72;;;;;;;8.67;80.62;100994.75;5043998;28;20021;-65
2021/12/17 11:29:34;;;;;;;8.30;4.50;;;;;;;8.52;80.57;100979.47;5043741;28;20083;-65
2021/12/17 11:32:03;;;;;;;10.73;5.25;;;;;;;8.57;80.51;100976.97;5032115;28;20030;-65
2021/12/17 11:34:30;;;;;;;10.70;5.60;;;;;;;8.70;80.98;100981.69;5031667;28;20038;-65
2021/12/17 11:36:58;;;;;;;11.23;5.38;;;;;;;8.88;79.01;100973.38;5024848;28;20202;-65
2021/12/17 11:39:32;;;;;;;9.88;5.47;;;;;;;8.82;79.31;100978.50;5024588;28;20028;-65
2021/12/17 11:42:09;;;;;;;12.50;5.30;;;;;;;8.82;79.40;100968.00;5024374;28;20033;-65
2021/12/17 11:44:41;;;;;;;10.80;6.38;;;;;;;8.98;78.70;100970.13;5025567;28;20026;-65
2021/12/17 11:47:12;;;;;;;11.85;5.88;;;;;;;8.90;79.06;100961.19;5024122;28;20028;-65
2021/12/17 11:49:45;;;;;;;10.85;5.03;;;;;;;8.92;78.99;100972.63;5024361;28;20089;-65
2021/12/17 11:52:11;;;;;;;11.48;5.50;;;;;;;8.95;78.70;100980.56;5024279;28;20226;-65
2021/12/17 11:54:37;;;;;;;11.45;5.85;;;;;;;8.96;78.64;100979.72;5024202;28;20041;-65
2021/12/17 11:57:12;;;;;;;11.23;5.88;;;;;;;8.99;78.03;100977.16;5024115;28;20318;-65
2021/12/17 11:59:47;;;;;;;12.98;6.30;;;;;;;9.07;78.23;100960.72;5023652;28;20049;-65
2021/12/17 12:02:24;;;;;;;11.57;6.28;;;;;;;9.07;79.29;100959.81;5025548;28;20265;-65
2021/12/17 12:04:57;;;;;;;17.90;6.47;;;;;;;9.16;78.58;100965.31;5024010;28;20021;-65
2021/12/17 12:07:25;;;;;;;14.55;5.97;;;;;;;9.08;78.80;100961.63;5024082;28;20060;-65
2021/12/17 12:10:09;;;;;;;11.70;6.25;;;;;;;9.12;78.02;100968.72;5040254;28;20040;-65
2021/12/17 12:12:34;;;;;;;11.13;5.80;;;;;;;9.00;79.28;100968.41;5027416;28;20029;-65
2021/12/17 12:15:23;;;;;;;11.27;6.78;;;;;;;9.01;79.47;100967.59;5023927;28;20218;-65
2021/12/17 12:17:58;;;;;;;13.85;7.50;;;;;;;8.95;79.26;100975.31;5023933;28;20318;-65
2021/12/17 12:20:49;;;;;;;12.30;6.80;;;;;;;8.90;79.51;100967.31;5025140;28;20032;-65
2021/12/17 12:23:28;;;;;;;12.88;6.53;;;;;;;8.91;79.71;100978.69;5023802;28;20222;-65
2021/12/17 12:26:02;;;;;;;11.73;6.38;;;;;;;9.00;79.44;100978.94;5023166;28;20041;-65
2021/12/17 12:28:46;;;;;;;11.75;5.85;;;;;;;9.00;79.54;100981.56;5042397;28;20040;-65
2021/12/17 12:31:27;;;;;;;12.55;6.32;;;;;;;8.82;80.02;100969.75;5035225;28;20022;-65
2021/12/17 12:34:02;;;;;;;13.07;6.35;;;;;;;8.85;79.73;100978.56;5036389;28;20032;-65
2021/12/17 12:37:05;;;;;;;13.95;7.55;;;;;;;8.78;81.22;100978.41;5042569;28;20253;-65
2021/12/17 12:39:35;;;;;;;16.02;6.55;;;;;;;8.80;80.04;100971.44;5025561;28;20036;-65
2021/12/17 12:42:19;;;;;;;12.38;6.95;;;;;;;8.85;79.23;100957.56;5024882;28;20029;-65
2021/12/17 12:44:44;;;;;;;11.27;6.07;;;;;;;8.82;81.48;100961.88;5024675;28;20336;-65
2021/12/17 12:47:31;;;;;;;11.35;5.60;;;;;;;8.94;79.28;100968.28;5024363;28;20014;-65
2021/12/17 12:50:03;;;;;;;11.13;6.28;;;;;;;8.94;80.31;100971.78;5030342;28;20307;-65
2021/12/17 12:52:31;;;;;;;11.63;5.70;;;;;;;8.88;80.86;101011.03;5033744;28;20057;-65
2021/12/17 12:55:17;;;;;;;10.38;5.88;;;;;;;8.99;80.23;100988.56;5040991;28;20321;-65
2021/12/17 12:57:59;;;;;;;10.43;6.07;;;;;;;9.07;79.69;100967.72;5043696;28;20021;-65
2021/12/17 13:00:26;;;;;;;12.90;6.10;;;;;;;9.01;79.21;100959.72;5043805;28;20210;-65
2021/12/17 13:03:09;;;;;;;12.05;5.80;;;;;;;8.96;79.82;100951.72;5043879;28;20022;-65
2021/12/17 13:05:35;;;;;;;;;;;;;;;8.93;80.31;100948.13;5044333;28;20435;-65
2021/12/17 13:08:04;;;;;;;8.95;4.50;;;;;;;8.98;81.17;100938.63;5043781;28;19905;-65
2021/12/17 13:10:34;;;;;;;9.55;5.30;;;;;;;9.00;80.93;100947.41;5043770;28;20084;-65
2021/12/17 13:13:17;;;;;;;12.45;4.85;;;;;;;8.93;79.96;100950.75;5043808;28;20229;-65
2021/12/17 13:16:07;;;;;;;7.72;4.68;;;;;;;8.92;80.44;100944.59;5043802;28;20029;-65
2021/12/17 13:24:05;;;;;;;9.65;4.85;;;;;;;8.88;80.18;100941.84;5044040;28;20033;-65
2021/12/17 13:26:31;;;;;;;9.10;4.80;;;;;;;8.88;80.54;100928.72;5043939;28;20399;-65
2021/12/17 13:29:13;;;;;;;9.30;5.00;;;;;;;8.89;81.04;100925.28;5043645;28;20021;-65
2021/12/17 13:31:49;;;;;;;8.68;4.63;;;;;;;8.87;80.44;100919.97;5043938;28;20378;-65
2021/12/17 13:34:34;;;;;;;10.13;4.93;;;;;;;8.92;80.82;100922.72;5043606;28;20049;-65
2021/12/17 13:37:21;;;;;;;8.15;4.65;;;;;;;8.90;80.65;100925.31;5043621;28;20030;-65
2021/12/17 13:39:57;;;;;;;7.85;4.78;;;;;;;8.87;80.98;100924.31;5047400;28;20028;-65
2021/12/17 13:42:26;;;;;;;9.20;5.05;;;;;;;8.80;80.99;100923.31;5046240;28;20360;-65
2021/12/17 13:45:06;;;;;;;11.55;4.88;;;;;;;8.79;81.80;100927.66;5046814;28;20027;-65
2021/12/17 13:47:36;;;;;;;9.85;4.82;;;;;;;8.76;81.05;100932.84;5047347;28;20033;-65
2021/12/17 13:50:13;;;;;;;8.90;4.85;;;;;;;8.82;79.86;100925.97;5047543;28;20029;-65
2021/12/17 13:52:46;;;;;;;12.90;5.05;;;;;;;8.71;81.63;100929.19;5047540;28;20084;-65
2021/12/17 13:55:14;;;;;;;9.45;4.63;;;;;;;8.75;81.97;100931.06;5047198;28;20032;-65
2021/12/17 13:57:41;;;;;;;9.95;5.10;;;;;;;8.72;81.86;100924.84;5047126;28;20033;-65
2021/12/17 14:00:07;;;;;;;9.48;5.38;;;;;;;8.76;81.52;100917.09;5046990;28;20022;-65
2021/12/17 14:02:34;;;;;;;10.45;4.90;;;;;;;8.68;81.63;100913.38;5047308;28;20030;-65
2021/12/17 14:05:07;;;;;;;11.02;5.32;;;;;;;8.68;80.86;100916.00;5046963;28;20385;-65
2021/12/17 14:07:34;;;;;;;11.82;5.70;;;;;;;8.71;80.85;100913.44;5046927;28;20059;-65
2021/12/17 14:10:05;;;;;;;13.35;5.57;;;;;;;8.69;81.50;100930.03;5046914;28;20359;-65
2021/12/17 14:12:36;;;;;;;10.23;5.38;;;;;;;8.63;81.06;100925.53;5046782;28;20025;-65
2021/12/17 14:15:08;;;;;;;12.43;6.03;;;;;;;8.59;82.13;100928.03;5046826;28;20017;-65
2021/12/17 14:17:40;;;;;;;10.57;5.25;;;;;;;8.41;83.05;100932.81;5046658;28;20033;-65
2021/12/17 14:20:10;;;;;;;10.10;5.30;;;;;;;8.41;82.80;100938.94;5046695;28;20022;-65
2021/12/17 14:22:38;;;;;;;10.40;5.18;;;;;;;8.45;81.90;100930.31;5047074;28;20388;-65
2021/12/17 14:25:39;;;;;;;11.20;5.53;;;;;;;8.38;82.23;100928.38;5046920;28;20067;-65